createdAt,value
2018-06-30T00:00:56.000Z,28.3
2018-06-30T00:02:41.000Z,28.3
2018-06-30T00:03:56.000Z,28.3
2018-06-30T00:05:56.000Z,28.3
2018-06-30T00:06:56.000Z,28.3
2018-06-30T00:08:56.000Z,28.3
2018-06-30T00:09:56.000Z,28.3
2018-06-30T00:11:56.000Z,28.4
2018-06-30T00:12:56.000Z,28.3
2018-06-30T00:14:56.000Z,28.3
2018-06-30T00:15:56.000Z,28.3
2018-06-30T00:16:56.000Z,28.3
2018-06-30T00:18:56.000Z,28.3
2018-06-30T00:19:56.000Z,28.3
2018-06-30T00:21:56.000Z,28.4
2018-06-30T00:22:56.000Z,28.3
2018-06-30T00:23:56.000Z,28.4
2018-06-30T00:25:56.000Z,28.4
2018-06-30T00:26:56.000Z,28.4
2018-06-30T00:28:56.000Z,28.4
2018-06-30T00:30:56.000Z,28.3
2018-06-30T00:31:56.000Z,28.3
2018-06-30T00:33:41.000Z,28.3
2018-06-30T00:34:56.000Z,28.2
2018-06-30T00:36:56.000Z,28.1
2018-06-30T00:38:56.000Z,28
2018-06-30T00:39:56.000Z,28
2018-06-30T00:40:56.000Z,28
2018-06-30T00:42:56.000Z,28
2018-06-30T00:43:56.000Z,28
2018-06-30T00:45:41.000Z,28
2018-06-30T00:46:56.000Z,27.9
2018-06-30T00:48:56.000Z,27.9
2018-06-30T00:50:56.000Z,27.8
2018-06-30T00:52:56.000Z,27.7
2018-06-30T00:54:57.000Z,27.7
2018-06-30T00:56:57.000Z,27.6
2018-06-30T00:57:57.000Z,27.6
2018-06-30T00:58:57.000Z,27.7
2018-06-30T01:00:57.000Z,27.7
2018-06-30T01:01:57.000Z,27.7
2018-06-30T01:02:57.000Z,27.7
2018-06-30T01:03:57.000Z,27.7
2018-06-30T01:04:57.000Z,27.8
2018-06-30T01:05:57.000Z,27.8
2018-06-30T01:07:57.000Z,27.8
2018-06-30T01:09:57.000Z,27.6
2018-06-30T01:10:57.000Z,27.6
2018-06-30T01:11:57.000Z,27.6
2018-06-30T01:13:57.000Z,27.6
2018-06-30T01:15:57.000Z,27.5
2018-06-30T01:17:57.000Z,27.4
2018-06-30T01:18:57.000Z,27.4
2018-06-30T01:20:57.000Z,27.4
2018-06-30T01:21:57.000Z,27.4
2018-06-30T01:22:57.000Z,27.5
2018-06-30T01:24:57.000Z,27.5
2018-06-30T01:25:57.000Z,27.6
2018-06-30T01:27:57.000Z,27.6
2018-06-30T01:28:57.000Z,27.6
2018-06-30T01:30:57.000Z,27.5
2018-06-30T01:31:57.000Z,27.5
2018-06-30T01:33:57.000Z,27.5
2018-06-30T01:35:57.000Z,27.4
2018-06-30T01:36:57.000Z,27.4
2018-06-30T01:37:57.000Z,27.4
2018-06-30T01:38:57.000Z,27.4
2018-06-30T01:40:57.000Z,27.4
2018-06-30T01:42:57.000Z,27.3
2018-06-30T01:43:57.000Z,27.3
2018-06-30T01:45:41.000Z,27.3
2018-06-30T01:46:57.000Z,27.3
2018-06-30T01:48:57.000Z,27.2
2018-06-30T01:49:57.000Z,27.2
2018-06-30T01:50:57.000Z,27.3
2018-06-30T01:52:57.000Z,27.3
2018-06-30T01:53:57.000Z,27.3
2018-06-30T01:54:57.000Z,27.3
2018-06-30T01:56:57.000Z,27.4
2018-06-30T01:57:57.000Z,27.4
2018-06-30T01:58:57.000Z,27.4
2018-06-30T02:00:57.000Z,27.4
2018-06-30T02:01:57.000Z,27.4
2018-06-30T02:02:57.000Z,27.4
2018-06-30T02:03:57.000Z,27.4
2018-06-30T02:05:42.000Z,27.3
2018-06-30T02:06:57.000Z,27.2
2018-06-30T02:08:57.000Z,27.2
2018-06-30T02:10:57.000Z,27
2018-06-30T02:12:57.000Z,27
2018-06-30T02:13:57.000Z,27
2018-06-30T02:15:57.000Z,27
2018-06-30T02:16:57.000Z,27
2018-06-30T02:17:57.000Z,27
2018-06-30T02:19:57.000Z,27
2018-06-30T02:20:57.000Z,26.9
2018-06-30T02:22:57.000Z,26.9
2018-06-30T02:24:57.000Z,26.8
2018-06-30T02:26:42.000Z,26.8
2018-06-30T02:27:57.000Z,26.7
2018-06-30T02:29:57.000Z,26.6
2018-06-30T02:30:57.000Z,26.6
2018-06-30T02:32:57.000Z,26.6
2018-06-30T02:33:57.000Z,26.6
2018-06-30T02:34:57.000Z,26.7
2018-06-30T02:36:57.000Z,26.8
2018-06-30T02:38:57.000Z,26.8
2018-06-30T02:40:57.000Z,26.7
2018-06-30T02:41:57.000Z,26.7
2018-06-30T02:43:57.000Z,26.7
2018-06-30T02:45:57.000Z,26.6
2018-06-30T02:47:57.000Z,26.6
2018-06-30T02:48:57.000Z,26.6
2018-06-30T02:50:57.000Z,26.5
2018-06-30T02:52:42.000Z,26.5
2018-06-30T02:53:57.000Z,26.4
2018-06-30T02:55:57.000Z,26.4
2018-06-30T02:57:57.000Z,26.4
2018-06-30T02:58:57.000Z,26.4
2018-06-30T02:59:57.000Z,26.5
2018-06-30T03:00:56.000Z,26.6
2018-06-30T03:01:56.000Z,26.6
2018-06-30T03:03:56.000Z,26.7
2018-06-30T03:05:41.000Z,26.7
2018-06-30T03:06:56.000Z,26.6
2018-06-30T03:08:56.000Z,26.6
2018-06-30T03:09:56.000Z,26.6
2018-06-30T03:10:56.000Z,26.6
2018-06-30T03:12:56.000Z,26.6
2018-06-30T03:13:56.000Z,26.6
2018-06-30T03:15:56.000Z,26.6
2018-06-30T03:17:56.000Z,26.6
2018-06-30T03:18:56.000Z,26.6
2018-06-30T03:19:56.000Z,26.6
2018-06-30T03:20:56.000Z,26.6
2018-06-30T03:21:56.000Z,26.6
2018-06-30T03:23:56.000Z,26.5
2018-06-30T03:24:56.000Z,26.5
2018-06-30T03:26:41.000Z,26.5
2018-06-30T03:27:56.000Z,26.4
2018-06-30T03:28:56.000Z,26.4
2018-06-30T03:30:56.000Z,26.4
2018-06-30T03:32:56.000Z,26.4
2018-06-30T03:33:56.000Z,26.4
2018-06-30T03:34:56.000Z,26.4
2018-06-30T03:36:56.000Z,26.4
2018-06-30T03:38:56.000Z,26.4
2018-06-30T03:40:56.000Z,26.3
2018-06-30T03:41:56.000Z,26.3
2018-06-30T03:42:56.000Z,26.4
2018-06-30T03:44:56.000Z,26.4
2018-06-30T03:46:56.000Z,26.4
2018-06-30T03:47:56.000Z,26.5
2018-06-30T03:49:56.000Z,26.5
2018-06-30T03:50:56.000Z,26.5
2018-06-30T03:52:41.000Z,26.5
2018-06-30T03:53:56.000Z,26.4
2018-06-30T03:54:56.000Z,26.4
2018-06-30T03:56:56.000Z,26.4
2018-06-30T03:57:56.000Z,26.4
2018-06-30T03:59:56.000Z,26.5
2018-06-30T04:00:56.000Z,26.5
2018-06-30T04:02:56.000Z,26.5
2018-06-30T04:04:56.000Z,26.5
2018-06-30T04:06:56.000Z,26.5
2018-06-30T04:08:56.000Z,26.4
2018-06-30T04:10:56.000Z,26.3
2018-06-30T04:11:56.000Z,26.3
2018-06-30T04:13:56.000Z,26.4
2018-06-30T04:15:56.000Z,26.4
2018-06-30T04:16:56.000Z,26.4
2018-06-30T04:17:56.000Z,26.4
2018-06-30T04:18:56.000Z,26.5
2018-06-30T04:20:56.000Z,26.5
2018-06-30T04:22:41.000Z,26.6
2018-06-30T04:23:56.000Z,26.6
2018-06-30T04:25:56.000Z,26.6
2018-06-30T04:26:56.000Z,26.6
2018-06-30T04:28:56.000Z,26.7
2018-06-30T04:29:56.000Z,26.7
2018-06-30T04:30:56.000Z,26.8
2018-06-30T04:31:56.000Z,26.9
2018-06-30T04:33:56.000Z,27
2018-06-30T04:34:56.000Z,27
2018-06-30T04:36:56.000Z,27
2018-06-30T04:38:56.000Z,26.9
2018-06-30T04:39:56.000Z,26.9
2018-06-30T04:41:56.000Z,27
2018-06-30T04:43:56.000Z,27
2018-06-30T04:45:56.000Z,26.9
2018-06-30T04:47:56.000Z,26.8
2018-06-30T04:49:56.000Z,26.7
2018-06-30T04:50:56.000Z,26.7
2018-06-30T04:52:56.000Z,26.8
2018-06-30T04:53:56.000Z,26.8
2018-06-30T04:55:56.000Z,26.8
2018-06-30T04:56:56.000Z,26.8
2018-06-30T04:58:56.000Z,26.8
2018-06-30T05:00:56.000Z,26.8
2018-06-30T05:02:56.000Z,26.8
2018-06-30T05:03:56.000Z,26.8
2018-06-30T05:05:56.000Z,27
2018-06-30T05:06:56.000Z,27
2018-06-30T05:07:56.000Z,27
2018-06-30T05:09:56.000Z,27.1
2018-06-30T05:11:56.000Z,27.1
2018-06-30T05:12:56.000Z,27
2018-06-30T05:14:56.000Z,27
2018-06-30T05:16:56.000Z,26.9
2018-06-30T05:17:56.000Z,26.9
2018-06-30T05:19:56.000Z,27
2018-06-30T05:21:56.000Z,27
2018-06-30T05:23:56.000Z,27
2018-06-30T05:24:56.000Z,27
2018-06-30T05:26:56.000Z,27.1
2018-06-30T05:27:56.000Z,27.2
2018-06-30T05:29:56.000Z,27.2
2018-06-30T05:31:41.000Z,27.2
2018-06-30T05:32:56.000Z,27.2
2018-06-30T05:34:56.000Z,27.2
2018-06-30T05:36:56.000Z,27.1
2018-06-30T05:38:56.000Z,27.2
2018-06-30T05:40:56.000Z,27.3
2018-06-30T05:41:56.000Z,27.3
2018-06-30T05:42:56.000Z,27.4
2018-06-30T05:44:56.000Z,27.6
2018-06-30T05:45:56.000Z,27.6
2018-06-30T05:47:56.000Z,27.7
2018-06-30T05:48:56.000Z,27.8
2018-06-30T05:49:56.000Z,27.8
2018-06-30T05:51:56.000Z,27.8
2018-06-30T05:53:56.000Z,27.8
2018-06-30T05:55:56.000Z,27.8
2018-06-30T05:57:56.000Z,27.7
2018-06-30T05:58:56.000Z,27.8
2018-06-30T06:00:41.000Z,27.8
2018-06-30T06:01:56.000Z,27.8
2018-06-30T06:02:56.000Z,27.9
2018-06-30T06:03:56.000Z,27.9
2018-06-30T06:05:56.000Z,27.9
2018-06-30T06:07:56.000Z,27.8
2018-06-30T06:09:56.000Z,27.7
2018-06-30T06:10:56.000Z,27.8
2018-06-30T06:12:57.000Z,27.8
2018-06-30T06:14:57.000Z,27.8
2018-06-30T06:16:57.000Z,27.8
2018-06-30T06:18:57.000Z,27.8
2018-06-30T06:19:57.000Z,27.9
2018-06-30T06:21:57.000Z,27.9
2018-06-30T06:22:57.000Z,27.9
2018-06-30T06:26:57.000Z,27.6
2018-06-30T06:28:43.000Z,27.6
2018-06-30T06:30:43.000Z,27.7
2018-06-30T06:31:43.000Z,27.8
2018-06-30T06:32:43.000Z,27.8
2018-06-30T06:34:43.000Z,27.9
2018-06-30T06:36:43.000Z,28
2018-06-30T06:37:43.000Z,28
2018-06-30T06:39:43.000Z,28.1
2018-06-30T06:40:43.000Z,28.2
2018-06-30T06:42:43.000Z,28.3
2018-06-30T06:43:43.000Z,28.3
2018-06-30T06:44:43.000Z,28.3
2018-06-30T06:45:43.000Z,28.5
2018-06-30T06:47:43.000Z,28.6
2018-06-30T06:48:43.000Z,28.6
2018-06-30T06:49:43.000Z,28.6
2018-06-30T06:51:43.000Z,28.6
2018-06-30T06:53:43.000Z,28.6
2018-06-30T06:55:43.000Z,28.5
2018-06-30T06:56:43.000Z,28.5
2018-06-30T06:57:43.000Z,28.5
2018-06-30T06:59:43.000Z,28.5
2018-06-30T07:01:43.000Z,28.6
2018-06-30T07:03:43.000Z,28.6
2018-06-30T07:04:43.000Z,28.6
2018-06-30T07:06:43.000Z,28.6
2018-06-30T07:07:43.000Z,28.7
2018-06-30T07:09:43.000Z,28.8
2018-06-30T07:10:43.000Z,28.9
2018-06-30T07:12:43.000Z,29
2018-06-30T07:14:42.000Z,29
2018-06-30T07:16:42.000Z,29.1
2018-06-30T07:17:42.000Z,29.2
2018-06-30T07:18:42.000Z,29.2
2018-06-30T07:20:42.000Z,29.3
2018-06-30T07:22:27.000Z,29.4
2018-06-30T07:23:42.000Z,29.4
2018-06-30T07:25:42.000Z,29.4
2018-06-30T07:26:42.000Z,29.4
2018-06-30T07:28:42.000Z,29.4
2018-06-30T07:29:42.000Z,29.5
2018-06-30T07:31:42.000Z,29.5
2018-06-30T07:32:42.000Z,29.5
2018-06-30T07:34:42.000Z,29.6
2018-06-30T07:35:42.000Z,29.7
2018-06-30T07:37:42.000Z,29.6
2018-06-30T07:38:42.000Z,29.6
2018-06-30T07:39:42.000Z,29.6
2018-06-30T07:41:42.000Z,29.7
2018-06-30T07:43:42.000Z,29.8
2018-06-30T07:45:42.000Z,29.9
2018-06-30T07:47:27.000Z,29.9
2018-06-30T07:48:42.000Z,29.8
2018-06-30T07:50:42.000Z,29.9
2018-06-30T07:51:42.000Z,29.9
2018-06-30T07:52:42.000Z,30
2018-06-30T07:53:42.000Z,30.1
2018-06-30T07:55:42.000Z,30.3
2018-06-30T07:57:42.000Z,30.3
2018-06-30T07:59:42.000Z,30.3
2018-06-30T08:00:42.000Z,30.3
2018-06-30T08:02:42.000Z,30.4
2018-06-30T08:03:42.000Z,30.4
2018-06-30T08:05:42.000Z,30.4
2018-06-30T08:06:42.000Z,30.4
2018-06-30T08:07:42.000Z,30.5
2018-06-30T08:09:42.000Z,30.6
2018-06-30T08:11:42.000Z,30.6
2018-06-30T08:13:42.000Z,30.6
2018-06-30T08:15:27.000Z,30.6
2018-06-30T08:16:42.000Z,30.6
2018-06-30T08:18:42.000Z,30.6
2018-06-30T08:20:42.000Z,30.6
2018-06-30T08:21:42.000Z,30.6
2018-06-30T08:23:42.000Z,30.8
2018-06-30T08:25:42.000Z,30.8
2018-06-30T08:27:42.000Z,30.8
2018-06-30T08:29:42.000Z,30.8
2018-06-30T08:31:42.000Z,30.7
2018-06-30T08:32:42.000Z,30.7
2018-06-30T08:34:42.000Z,30.8
2018-06-30T08:36:42.000Z,31.2
2018-06-30T08:38:27.000Z,31.9
2018-06-30T08:39:42.000Z,32.1
2018-06-30T08:40:42.000Z,32.1
2018-06-30T08:42:42.000Z,32.2
2018-06-30T08:44:42.000Z,32.8
2018-06-30T08:45:42.000Z,33.1
2018-06-30T08:47:42.000Z,32.9
2018-06-30T08:48:42.000Z,32.7
2018-06-30T08:50:27.000Z,32.3
2018-06-30T08:51:42.000Z,32.1
2018-06-30T08:53:42.000Z,31.7
2018-06-30T08:55:42.000Z,31.3
2018-06-30T08:57:42.000Z,31.1
2018-06-30T08:59:42.000Z,30.9
2018-06-30T09:00:42.000Z,30.8
2018-06-30T09:02:42.000Z,30.8
2018-06-30T09:04:42.000Z,30.7
2018-06-30T09:05:42.000Z,30.7
2018-06-30T09:07:42.000Z,30.6
2018-06-30T09:09:42.000Z,30.6
2018-06-30T09:10:42.000Z,30.6
2018-06-30T09:11:42.000Z,30.6
2018-06-30T09:12:42.000Z,30.6
2018-06-30T09:13:42.000Z,30.7
2018-06-30T09:15:42.000Z,30.7
2018-06-30T09:16:42.000Z,30.7
2018-06-30T09:18:42.000Z,30.8
2018-06-30T09:19:42.000Z,30.8
2018-06-30T09:21:42.000Z,30.8
2018-06-30T09:23:42.000Z,30.7
2018-06-30T09:25:42.000Z,30.6
2018-06-30T09:27:42.000Z,30.5
2018-06-30T09:28:42.000Z,30.5
2018-06-30T09:29:42.000Z,30.6
2018-06-30T09:31:42.000Z,30.6
2018-06-30T09:33:42.000Z,30.6
2018-06-30T09:35:42.000Z,30.5
2018-06-30T09:36:42.000Z,30.5
2018-06-30T09:38:42.000Z,30.5
2018-06-30T09:40:42.000Z,30.5
2018-06-30T09:42:42.000Z,30.5
2018-06-30T09:44:27.000Z,30.5
2018-06-30T09:45:42.000Z,30.4
2018-06-30T09:46:42.000Z,30.5
2018-06-30T09:47:42.000Z,30.5
2018-06-30T09:48:42.000Z,30.6
2018-06-30T09:50:27.000Z,30.7
2018-06-30T09:51:42.000Z,30.6
2018-06-30T09:52:42.000Z,30.6
2018-06-30T09:54:27.000Z,30.6
2018-06-30T09:55:42.000Z,30.6
2018-06-30T09:57:27.000Z,30.6
2018-06-30T09:58:42.000Z,30.5
2018-06-30T09:59:42.000Z,30.5
2018-06-30T10:01:42.000Z,30.5
2018-06-30T10:02:42.000Z,30.5
2018-06-30T10:04:42.000Z,30.5
2018-06-30T10:05:42.000Z,30.6
2018-06-30T10:06:42.000Z,30.6
2018-06-30T10:08:42.000Z,30.7
2018-06-30T10:09:42.000Z,30.7
2018-06-30T10:10:42.000Z,30.7
2018-06-30T10:12:42.000Z,30.7
2018-06-30T10:13:42.000Z,30.7
2018-06-30T10:15:42.000Z,30.7
2018-06-30T10:16:42.000Z,30.7
2018-06-30T10:17:42.000Z,30.8
2018-06-30T10:19:42.000Z,30.9
2018-06-30T10:21:42.000Z,30.8
2018-06-30T10:23:27.000Z,30.1
2018-06-30T10:24:42.000Z,30.7
2018-06-30T10:25:42.000Z,30.7
2018-06-30T10:27:43.000Z,30.7
2018-06-30T10:28:43.000Z,30.8
2018-06-30T10:30:43.000Z,30.8
2018-06-30T10:32:43.000Z,30.7
2018-06-30T10:33:43.000Z,30.7
2018-06-30T10:34:43.000Z,30.7
2018-06-30T10:36:43.000Z,30.8
2018-06-30T10:38:43.000Z,30.7
2018-06-30T10:39:43.000Z,30.7
2018-06-30T10:41:43.000Z,30.8
2018-06-30T10:42:43.000Z,30.8
2018-06-30T10:44:43.000Z,30.8
2018-06-30T10:45:43.000Z,30.9
2018-06-30T10:46:43.000Z,30.9
2018-06-30T10:48:28.000Z,30.9
2018-06-30T10:49:43.000Z,30.9
2018-06-30T10:50:43.000Z,30.9
2018-06-30T10:51:43.000Z,30.9
2018-06-30T10:52:43.000Z,30.9
2018-06-30T10:54:43.000Z,31
2018-06-30T10:55:43.000Z,31
2018-06-30T10:56:43.000Z,31
2018-06-30T10:57:43.000Z,31.1
2018-06-30T10:59:43.000Z,31
2018-06-30T11:00:43.000Z,31
2018-06-30T11:01:43.000Z,31
2018-06-30T11:03:43.000Z,30.9
2018-06-30T11:05:28.000Z,30.1
2018-06-30T11:06:43.000Z,30.8
2018-06-30T11:08:43.000Z,30.7
2018-06-30T11:10:43.000Z,30.7
2018-06-30T11:12:43.000Z,30.6
2018-06-30T11:13:43.000Z,30.7
2018-06-30T11:15:43.000Z,30.7
2018-06-30T11:16:43.000Z,30.7
2018-06-30T11:18:43.000Z,30.8
2018-06-30T11:19:43.000Z,30.8
2018-06-30T11:20:43.000Z,30.9
2018-06-30T11:22:43.000Z,31
2018-06-30T11:24:43.000Z,31
2018-06-30T11:26:43.000Z,31.2
2018-06-30T11:27:43.000Z,31.3
2018-06-30T11:28:43.000Z,31.4
2018-06-30T11:30:42.000Z,31.7
2018-06-30T11:31:42.000Z,31.8
2018-06-30T11:33:42.000Z,32
2018-06-30T11:35:42.000Z,32
2018-06-30T11:36:42.000Z,31.9
2018-06-30T11:38:42.000Z,31.8
2018-06-30T11:40:42.000Z,31.7
2018-06-30T11:41:42.000Z,31.6
2018-06-30T11:43:42.000Z,31.6
2018-06-30T11:44:42.000Z,31.6
2018-06-30T11:46:42.000Z,31.5
2018-06-30T11:48:42.000Z,31.4
2018-06-30T11:50:42.000Z,31.4
2018-06-30T11:52:42.000Z,31.4
2018-06-30T11:54:27.000Z,31.3
2018-06-30T11:55:42.000Z,31.3
2018-06-30T11:56:42.000Z,31.3
2018-06-30T11:58:42.000Z,31.4
2018-06-30T11:59:42.000Z,31.4
2018-06-30T12:00:42.000Z,31.5
2018-06-30T12:02:42.000Z,31.5
2018-06-30T12:03:42.000Z,31.6
2018-06-30T12:05:42.000Z,31.6
2018-06-30T12:06:42.000Z,31.6
2018-06-30T12:07:42.000Z,31.6
2018-06-30T12:09:42.000Z,31.6
2018-06-30T12:10:42.000Z,31.6
2018-06-30T12:12:42.000Z,31.6
2018-06-30T12:14:42.000Z,31.5
2018-06-30T12:16:27.000Z,31.5
2018-06-30T12:17:42.000Z,31.5
2018-06-30T12:19:42.000Z,31.5
2018-06-30T12:21:42.000Z,31.4
2018-06-30T12:22:42.000Z,31.4
2018-06-30T12:24:42.000Z,31.4
2018-06-30T12:25:42.000Z,31.4
2018-06-30T12:27:42.000Z,31.5
2018-06-30T12:28:42.000Z,31.5
2018-06-30T12:30:42.000Z,31.5
2018-06-30T12:32:42.000Z,31.5
2018-06-30T12:33:43.000Z,31.5
2018-06-30T12:35:43.000Z,31.5
2018-06-30T12:37:27.000Z,31.5
2018-06-30T12:38:43.000Z,31.5
2018-06-30T12:39:43.000Z,31.5
2018-06-30T12:41:43.000Z,31.5
2018-06-30T12:42:43.000Z,31.5
2018-06-30T12:44:43.000Z,31.5
2018-06-30T12:45:43.000Z,31.5
2018-06-30T12:47:27.000Z,31.5
2018-06-30T12:48:43.000Z,31.5
2018-06-30T12:49:43.000Z,31.5
2018-06-30T12:51:43.000Z,31.5
2018-06-30T12:53:43.000Z,31.5
2018-06-30T12:54:43.000Z,31.5
2018-06-30T12:56:43.000Z,31.5
2018-06-30T12:57:43.000Z,31.5
2018-06-30T12:59:43.000Z,31.5
2018-06-30T13:00:43.000Z,31.5
2018-06-30T13:01:43.000Z,31.6
2018-06-30T13:03:43.000Z,31.7
2018-06-30T13:04:43.000Z,31.7
2018-06-30T13:05:43.000Z,31.7
2018-06-30T13:07:43.000Z,31.7
2018-06-30T13:09:43.000Z,31.6
2018-06-30T13:11:43.000Z,31.5
2018-06-30T13:12:43.000Z,31.5
2018-06-30T13:13:43.000Z,31.5
2018-06-30T13:15:27.000Z,31.5
2018-06-30T13:16:43.000Z,31.4
2018-06-30T13:18:43.000Z,31.4
2018-06-30T13:19:43.000Z,31.4
2018-06-30T13:21:43.000Z,31.4
2018-06-30T13:23:43.000Z,31.4
2018-06-30T13:25:43.000Z,31.3
2018-06-30T13:26:43.000Z,31.3
2018-06-30T13:28:43.000Z,31.3
2018-06-30T13:30:43.000Z,31.3
2018-06-30T13:32:43.000Z,31.3
2018-06-30T13:34:43.000Z,31.3
2018-06-30T13:36:27.000Z,31.4
2018-06-30T13:37:43.000Z,31.3
2018-06-30T13:39:43.000Z,31.4
2018-06-30T13:40:43.000Z,31.4
2018-06-30T13:42:43.000Z,31.4
2018-06-30T13:44:43.000Z,31.4
2018-06-30T13:45:43.000Z,31.4
2018-06-30T13:47:43.000Z,31.4
2018-06-30T13:49:43.000Z,31.4
2018-06-30T13:51:43.000Z,31.4
2018-06-30T13:53:28.000Z,31.4
2018-06-30T13:54:43.000Z,31.4
2018-06-30T13:55:43.000Z,31.4
2018-06-30T13:57:43.000Z,31.5
2018-06-30T13:58:43.000Z,31.5
2018-06-30T13:59:43.000Z,31.6
2018-06-30T14:01:43.000Z,31.6
2018-06-30T14:02:43.000Z,31.6
2018-06-30T14:04:43.000Z,31.6
2018-06-30T14:05:43.000Z,31.6
2018-06-30T14:06:43.000Z,31.7
2018-06-30T14:08:43.000Z,31.8
2018-06-30T14:10:43.000Z,31.6
2018-06-30T14:12:43.000Z,31.5
2018-06-30T14:13:43.000Z,31.5
2018-06-30T14:14:43.000Z,31.5
2018-06-30T14:16:43.000Z,31.5
2018-06-30T14:17:43.000Z,31.5
2018-06-30T14:18:43.000Z,31.5
2018-06-30T14:19:43.000Z,31.6
2018-06-30T14:20:43.000Z,31.6
2018-06-30T14:22:43.000Z,31.7
2018-06-30T14:23:43.000Z,31.7
2018-06-30T14:24:43.000Z,31.7
2018-06-30T14:26:43.000Z,31.7
2018-06-30T14:28:43.000Z,31.6
2018-06-30T14:29:43.000Z,31.6
2018-06-30T14:31:43.000Z,31.5
2018-06-30T14:32:43.000Z,31.5
2018-06-30T14:34:43.000Z,31.5
2018-06-30T14:36:43.000Z,31.5
2018-06-30T14:37:43.000Z,31.5
2018-06-30T14:39:43.000Z,31.5
2018-06-30T14:40:43.000Z,31.5
2018-06-30T14:42:43.000Z,31.6
2018-06-30T14:44:27.000Z,31.6
2018-06-30T14:45:43.000Z,31.5
2018-06-30T14:47:43.000Z,31.5
2018-06-30T14:49:43.000Z,31.4
2018-06-30T14:51:43.000Z,31.4
2018-06-30T14:52:43.000Z,31.5
2018-06-30T14:54:43.000Z,31.5
2018-06-30T14:55:43.000Z,31.5
2018-06-30T14:57:43.000Z,31.6
2018-06-30T14:58:43.000Z,31.6
2018-06-30T15:00:43.000Z,31.7
2018-06-30T15:02:43.000Z,31.6
2018-06-30T15:04:43.000Z,31.6
2018-06-30T15:06:43.000Z,31.5
2018-06-30T15:07:43.000Z,31.5
2018-06-30T15:09:43.000Z,31.5
2018-06-30T15:11:43.000Z,31.5
2018-06-30T15:13:43.000Z,31.4
2018-06-30T15:15:43.000Z,31.3
2018-06-30T15:17:43.000Z,31.3
2018-06-30T15:19:43.000Z,31.3
2018-06-30T15:21:27.000Z,31.3
2018-06-30T15:22:43.000Z,31.3
2018-06-30T15:24:43.000Z,31.3
2018-06-30T15:26:43.000Z,31.3
2018-06-30T15:28:43.000Z,31.3
2018-06-30T15:29:43.000Z,31.3
2018-06-30T15:31:43.000Z,31.4
2018-06-30T15:33:43.000Z,31.4
2018-06-30T15:35:43.000Z,31.4
2018-06-30T15:36:43.000Z,31.3
2018-06-30T15:37:43.000Z,31.4
2018-06-30T15:39:43.000Z,31.4
2018-06-30T15:40:43.000Z,31.4
2018-06-30T15:42:43.000Z,31.5
2018-06-30T15:44:27.000Z,31.5
2018-06-30T15:45:42.000Z,31.5
2018-06-30T15:47:42.000Z,31.5
2018-06-30T15:48:42.000Z,31.5
2018-06-30T15:50:42.000Z,31.5
2018-06-30T15:51:42.000Z,31.5
2018-06-30T15:53:42.000Z,31.6
2018-06-30T15:55:42.000Z,31.6
2018-06-30T15:56:42.000Z,31.5
2018-06-30T15:58:42.000Z,31.6
2018-06-30T15:59:42.000Z,31.6
2018-06-30T16:01:42.000Z,31.5
2018-06-30T16:03:27.000Z,31.5
2018-06-30T16:04:42.000Z,31.4
2018-06-30T16:05:42.000Z,31.5
2018-06-30T16:06:42.000Z,31.5
2018-06-30T16:08:27.000Z,31.6
2018-06-30T16:09:42.000Z,31.6
2018-06-30T16:11:42.000Z,31.6
2018-06-30T16:13:42.000Z,31.5
2018-06-30T16:14:42.000Z,31.5
2018-06-30T16:15:42.000Z,31.5
2018-06-30T16:17:42.000Z,31.5
2018-06-30T16:18:42.000Z,31.5
2018-06-30T16:20:42.000Z,31.5
2018-06-30T16:22:42.000Z,31.5
2018-06-30T16:24:42.000Z,31.3
2018-06-30T16:26:42.000Z,31.2
2018-06-30T16:28:27.000Z,31.2
2018-06-30T16:29:42.000Z,31.1
2018-06-30T16:30:42.000Z,31.1
2018-06-30T16:31:42.000Z,31.2
2018-06-30T16:32:42.000Z,31.3
2018-06-30T16:33:42.000Z,31.3
2018-06-30T16:35:42.000Z,31.4
2018-06-30T16:37:42.000Z,31.4
2018-06-30T16:38:42.000Z,31.5
2018-06-30T16:40:42.000Z,31.5
2018-06-30T16:42:42.000Z,31.4
2018-06-30T16:43:42.000Z,31.4
2018-06-30T16:44:42.000Z,31.4
2018-06-30T16:45:42.000Z,31.4
2018-06-30T16:47:27.000Z,31.5
2018-06-30T16:48:42.000Z,31.5
2018-06-30T16:49:42.000Z,31.5
2018-06-30T16:51:42.000Z,31.5
2018-06-30T16:53:42.000Z,31.4
2018-06-30T16:55:42.000Z,31.3
2018-06-30T16:57:42.000Z,31.3
2018-06-30T16:59:42.000Z,31.3
2018-06-30T17:01:42.000Z,31.4
2018-06-30T17:03:42.000Z,31.4
2018-06-30T17:05:42.000Z,31.4
2018-06-30T17:06:42.000Z,31.4
2018-06-30T17:08:42.000Z,31.5
2018-06-30T17:09:42.000Z,31.5
2018-06-30T17:11:42.000Z,31.5
2018-06-30T17:13:27.000Z,31.6
2018-06-30T17:14:42.000Z,31.5
2018-06-30T17:16:42.000Z,31.5
2018-06-30T17:17:42.000Z,31.5
2018-06-30T17:19:42.000Z,31.5
2018-06-30T17:20:42.000Z,31.5
2018-06-30T17:21:42.000Z,31.6
2018-06-30T17:23:42.000Z,31.6
2018-06-30T17:24:42.000Z,31.6
2018-06-30T17:25:42.000Z,31.6
2018-06-30T17:26:42.000Z,31.6
2018-06-30T17:28:27.000Z,31.6
2018-06-30T17:29:42.000Z,31.5
2018-06-30T17:30:42.000Z,31.5
2018-06-30T17:32:42.000Z,31.5
2018-06-30T17:33:42.000Z,31.6
2018-06-30T17:34:42.000Z,31.6
2018-06-30T17:35:42.000Z,31.7
2018-06-30T17:37:42.000Z,31.7
2018-06-30T17:39:42.000Z,31.7
2018-06-30T17:40:42.000Z,31.6
2018-06-30T17:42:42.000Z,31.6
2018-06-30T17:44:42.000Z,31.5
2018-06-30T17:45:42.000Z,31.5
2018-06-30T17:47:42.000Z,31.5
2018-06-30T17:49:42.000Z,31.5
2018-06-30T17:51:43.000Z,31.4
2018-06-30T17:53:43.000Z,31.3
2018-06-30T17:55:27.000Z,31.3
2018-06-30T17:56:43.000Z,31.3
2018-06-30T17:58:43.000Z,31.2
2018-06-30T18:00:43.000Z,31.2
2018-06-30T18:01:43.000Z,31.2
2018-06-30T18:02:43.000Z,31.2
2018-06-30T18:04:43.000Z,31.3
2018-06-30T18:06:43.000Z,31.3
2018-06-30T18:08:43.000Z,31.3
2018-06-30T18:10:43.000Z,31.2
2018-06-30T18:12:43.000Z,31.2
2018-06-30T18:14:43.000Z,31.1
2018-06-30T18:15:43.000Z,31.1
2018-06-30T18:17:43.000Z,31.1
2018-06-30T18:18:43.000Z,31.2
2018-06-30T18:19:43.000Z,31.2
2018-06-30T18:21:27.000Z,31.3
2018-06-30T18:22:43.000Z,31.3
2018-06-30T18:23:43.000Z,31.3
2018-06-30T18:24:43.000Z,31.3
2018-06-30T18:26:43.000Z,31.4
2018-06-30T18:28:43.000Z,31.4
2018-06-30T18:30:27.000Z,31.3
2018-06-30T18:31:43.000Z,31.2
2018-06-30T18:32:43.000Z,31.2
2018-06-30T18:34:43.000Z,31.2
2018-06-30T18:36:43.000Z,31.1
2018-06-30T18:38:43.000Z,31.1
2018-06-30T18:40:43.000Z,31
2018-06-30T18:42:27.000Z,31
2018-06-30T18:43:43.000Z,31
2018-06-30T18:45:43.000Z,30.9
2018-06-30T18:46:43.000Z,30.9
2018-06-30T18:47:43.000Z,30.9
2018-06-30T18:49:43.000Z,31
2018-06-30T18:51:43.000Z,30.9
2018-06-30T18:53:43.000Z,30.8
2018-06-30T18:55:43.000Z,30.7
2018-06-30T18:57:43.000Z,30.7
2018-06-30T18:59:43.000Z,30.7
2018-06-30T19:00:43.000Z,30.7
2018-06-30T19:02:43.000Z,30.7
2018-06-30T19:04:43.000Z,30.6
2018-06-30T19:05:43.000Z,30.6
2018-06-30T19:06:43.000Z,30.6
2018-06-30T19:07:43.000Z,30.7
2018-06-30T19:08:43.000Z,30.7
2018-06-30T19:10:43.000Z,30.8
2018-06-30T19:11:43.000Z,30.8
2018-06-30T19:12:43.000Z,30.8
2018-06-30T19:14:43.000Z,30.8
2018-06-30T19:16:28.000Z,30.8
2018-06-30T19:17:43.000Z,30.7
2018-06-30T19:18:43.000Z,30.7
2018-06-30T19:20:43.000Z,30.7
2018-06-30T19:21:43.000Z,30.7
2018-06-30T19:23:28.000Z,30.6
2018-06-30T19:24:43.000Z,30.6
2018-06-30T19:25:43.000Z,30.6
2018-06-30T19:27:28.000Z,30.5
2018-06-30T19:28:43.000Z,30.5
2018-06-30T19:29:43.000Z,30.5
2018-06-30T19:31:43.000Z,30.5
2018-06-30T19:32:43.000Z,30.5
2018-06-30T19:34:43.000Z,30.5
2018-06-30T19:36:43.000Z,30.4
2018-06-30T19:37:43.000Z,30.4
2018-06-30T19:39:43.000Z,30.3
2018-06-30T19:41:43.000Z,30.2
2018-06-30T19:42:43.000Z,30.2
2018-06-30T19:43:43.000Z,30.2
2018-06-30T19:45:43.000Z,30.3
2018-06-30T19:47:43.000Z,30.3
2018-06-30T19:49:43.000Z,30.2
2018-06-30T19:51:43.000Z,30.1
2018-06-30T19:53:43.000Z,30
2018-06-30T19:54:43.000Z,30
2018-06-30T19:56:43.000Z,30
2018-06-30T19:58:43.000Z,29.9
2018-06-30T19:59:43.000Z,29.9
2018-06-30T20:01:43.000Z,29.9
2018-06-30T20:03:43.000Z,29.9
2018-06-30T20:04:43.000Z,29.9
2018-06-30T20:06:43.000Z,29.8
2018-06-30T20:07:43.000Z,29.8
2018-06-30T20:09:43.000Z,29.9
2018-06-30T20:10:43.000Z,29.9
2018-06-30T20:11:43.000Z,30
2018-06-30T20:13:43.000Z,29.9
2018-06-30T20:14:43.000Z,29.9
2018-06-30T20:16:43.000Z,29.8
2018-06-30T20:18:43.000Z,29.8
2018-06-30T20:19:43.000Z,29.8
2018-06-30T20:21:28.000Z,29.8
2018-06-30T20:22:43.000Z,29.8
2018-06-30T20:23:43.000Z,29.8
2018-06-30T20:25:43.000Z,29.8
2018-06-30T20:26:43.000Z,29.7
2018-06-30T20:28:43.000Z,29.7
2018-06-30T20:29:43.000Z,29.7
2018-06-30T20:30:43.000Z,29.7
2018-06-30T20:32:43.000Z,29.7
2018-06-30T20:33:43.000Z,29.7
2018-06-30T20:35:43.000Z,29.7
2018-06-30T20:36:43.000Z,29.7
2018-06-30T20:38:43.000Z,29.6
2018-06-30T20:39:43.000Z,29.5
2018-06-30T20:40:43.000Z,29.5
2018-06-30T20:42:43.000Z,29.5